Time;durP1;ratioP1;P1;durP2;ratioP2;P2;SDS_P1;SDS_P2;PMS_P1;PMS_P2;Temp;Humidity;BMP_temperature;BMP_pressure;BME280_temperature;BME280_humidity;BME280_pressure;Samples;Min_cycle;Max_cycle;Signal;HPM_P1;HPM_P2
2023/06/11 00:01:14;;;;;;;10.25;7.38;;;;;;;20.62;100.00;101287.06;5277917;28;20443;-66
2023/06/11 00:03:52;;;;;;;8.38;7.25;;;;;;;20.54;100.00;101283.31;5275816;28;20055;-66
2023/06/11 00:06:23;;;;;;;10.00;7.72;;;;;;;20.49;100.00;101279.44;5271762;28;20049;-67
2023/06/11 00:08:55;;;;;;;10.88;7.38;;;;;;;20.46;100.00;101280.63;5273385;28;20382;-66
2023/06/11 00:11:26;;;;;;;8.30;7.50;;;;;;;20.39;100.00;101281.50;5276305;28;20037;-66
2023/06/11 00:13:58;;;;;;;8.55;7.65;;;;;;;20.35;100.00;101279.09;5270525;28;20040;-66
2023/06/11 00:16:32;;;;;;;8.88;7.82;;;;;;;20.36;100.00;101275.38;5282840;28;20036;-66
2023/06/11 00:19:04;;;;;;;10.25;9.13;;;;;;;20.42;100.00;101275.69;5276674;28;20028;-66
2023/06/11 00:21:36;;;;;;;10.70;8.20;;;;;;;20.26;100.00;101279.28;5278305;28;20031;-66
2023/06/11 00:24:08;;;;;;;10.02;7.97;;;;;;;20.19;100.00;101273.69;5272537;28;20526;-66
2023/06/11 00:26:40;;;;;;;9.18;8.23;;;;;;;20.14;100.00;101273.38;5269079;28;20418;-66
2023/06/11 00:29:11;;;;;;;10.30;8.25;;;;;;;20.15;100.00;101275.03;5276439;28;20142;-66
2023/06/11 00:31:43;;;;;;;9.27;8.32;;;;;;;20.15;100.00;101273.22;5278671;28;20187;-66
2023/06/11 00:34:14;;;;;;;9.10;8.20;;;;;;;20.09;100.00;101268.44;5273730;28;20032;-66
2023/06/11 00:36:46;;;;;;;10.00;8.35;;;;;;;20.02;100.00;101272.88;5272577;28;20021;-66
2023/06/11 00:39:17;;;;;;;9.48;8.18;;;;;;;20.07;100.00;101267.75;5267832;28;20132;-66
2023/06/11 00:41:49;;;;;;;10.73;8.25;;;;;;;19.98;100.00;101274.19;5275613;28;20236;-66
2023/06/11 00:44:21;;;;;;;11.75;8.18;;;;;;;20.05;100.00;101263.53;5278592;28;20024;-67
2023/06/11 00:46:54;;;;;;;9.73;8.73;;;;;;;19.97;100.00;101267.09;5270525;28;20108;-66
2023/06/11 00:49:25;;;;;;;10.82;9.18;;;;;;;19.90;100.00;101263.38;5273382;28;20028;-66
2023/06/11 00:51:57;;;;;;;10.75;9.18;;;;;;;19.92;100.00;101270.31;5273273;28;20368;-67
2023/06/11 00:54:29;;;;;;;11.30;9.00;;;;;;;19.83;100.00;101265.91;5278120;28;20021;-66
2023/06/11 00:57:01;;;;;;;9.45;8.45;;;;;;;19.93;100.00;101269.28;5270015;28;20091;-66
2023/06/11 00:59:34;;;;;;;12.32;9.48;;;;;;;19.77;100.00;101272.84;5278426;28;20040;-66
2023/06/11 01:02:18;;;;;;;9.68;8.75;;;;;;;19.78;100.00;101268.25;5273872;28;20373;-66
2023/06/11 01:04:57;;;;;;;10.05;8.98;;;;;;;19.69;100.00;101270.06;5271664;28;20031;-66
2023/06/11 01:07:34;;;;;;;12.82;9.02;;;;;;;19.65;100.00;101271.41;5272175;28;20568;-66
2023/06/11 01:10:06;;;;;;;10.02;8.80;;;;;;;19.67;100.00;101274.81;5271242;28;20121;-66
2023/06/11 01:12:37;;;;;;;10.45;9.35;;;;;;;19.54;100.00;101277.16;5274431;28;20070;-66
2023/06/11 01:15:14;;;;;;;9.63;8.60;;;;;;;19.55;100.00;101270.72;5261405;28;20021;-66
2023/06/11 01:18:28;;;;;;;10.30;9.30;;;;;;;19.63;100.00;101268.03;5276639;28;20115;-66
2023/06/11 01:21:12;;;;;;;11.43;10.10;;;;;;;19.47;100.00;101271.56;5253699;28;20025;-66
2023/06/11 01:24:04;;;;;;;11.48;9.43;;;;;;;19.49;100.00;101280.38;5250256;28;20111;-66
2023/06/11 01:26:55;;;;;;;10.55;9.20;;;;;;;19.53;100.00;101270.06;5261377;28;20063;-66
2023/06/11 01:29:28;;;;;;;12.20;9.45;;;;;;;19.37;100.00;101274.41;5269902;28;20159;-66
2023/06/11 01:32:01;;;;;;;14.10;10.38;;;;;;;19.46;100.00;101275.28;5267668;28;20089;-67
2023/06/11 01:34:33;;;;;;;11.82;9.75;;;;;;;19.39;100.00;101272.38;5272489;28;20089;-66
2023/06/11 01:37:04;;;;;;;10.57;9.48;;;;;;;19.31;100.00;101275.09;5275763;28;20020;-66
2023/06/11 01:39:35;;;;;;;12.20;10.40;;;;;;;19.35;100.00;101284.56;5272349;28;20036;-67
2023/06/11 01:42:08;;;;;;;12.27;10.60;;;;;;;19.24;100.00;101274.03;5276167;28;20036;-66
2023/06/11 01:44:39;;;;;;;12.82;10.25;;;;;;;19.29;100.00;101274.41;5274104;28;20024;-66
2023/06/11 01:47:10;;;;;;;12.27;10.98;;;;;;;19.28;100.00;101275.41;5265642;28;20051;-66
2023/06/11 01:49:43;;;;;;;14.02;10.07;;;;;;;19.29;100.00;101282.53;5272412;28;20024;-66
2023/06/11 01:52:16;;;;;;;11.73;10.43;;;;;;;19.27;100.00;101270.13;5270396;28;20024;-66
2023/06/11 01:54:47;;;;;;;12.10;10.73;;;;;;;19.20;100.00;101275.38;5272211;28;20059;-66
2023/06/11 01:57:19;;;;;;;12.77;11.48;;;;;;;19.27;100.00;101279.13;5277994;28;20782;-66
2023/06/11 01:59:50;;;;;;;13.15;10.50;;;;;;;19.15;100.00;101275.00;5268617;28;20475;-67
2023/06/11 02:02:21;;;;;;;11.43;10.32;;;;;;;19.10;100.00;101277.34;5275172;28;20453;-66
2023/06/11 02:04:53;;;;;;;12.25;10.65;;;;;;;19.17;100.00;101278.41;5275353;28;20400;-66
2023/06/11 02:07:25;;;;;;;13.10;11.10;;;;;;;19.15;100.00;101278.56;5270982;28;20551;-66
2023/06/11 02:09:56;;;;;;;11.73;10.48;;;;;;;19.03;100.00;101281.72;5269613;28;20068;-66
2023/06/11 02:12:28;;;;;;;12.52;11.23;;;;;;;19.15;100.00;101286.66;5273698;28;20398;-66
2023/06/11 02:14:59;;;;;;;13.02;10.63;;;;;;;19.11;100.00;101281.75;5272938;28;20472;-67
2023/06/11 02:17:30;;;;;;;14.30;11.50;;;;;;;18.93;100.00;101276.44;5267909;28;20032;-66
2023/06/11 02:20:05;;;;;;;13.75;11.32;;;;;;;18.98;100.00;101280.38;5274559;28;20827;-66
2023/06/11 02:22:37;;;;;;;13.40;12.00;;;;;;;18.87;100.00;101288.75;5269699;28;20120;-66
2023/06/11 02:25:09;;;;;;;12.10;10.90;;;;;;;18.83;100.00;101286.53;5268903;28;20848;-66
2023/06/11 02:27:40;;;;;;;12.82;11.52;;;;;;;18.84;100.00;101278.25;5275028;28;20028;-66
2023/06/11 02:30:12;;;;;;;12.43;11.23;;;;;;;18.76;100.00;101273.63;5272996;28;20037;-66
2023/06/11 02:32:45;;;;;;;13.02;11.25;;;;;;;18.80;100.00;101287.69;5273210;28;20038;-66
2023/06/11 02:35:16;;;;;;;15.15;12.43;;;;;;;18.75;100.00;101282.72;5270444;28;20033;-66
2023/06/11 02:37:47;;;;;;;13.98;11.60;;;;;;;18.66;100.00;101280.13;5269427;28;20040;-66
2023/06/11 02:40:19;;;;;;;12.82;11.63;;;;;;;18.67;100.00;101279.13;5273001;28;20024;-66
2023/06/11 02:42:50;;;;;;;13.80;12.18;;;;;;;18.70;100.00;101287.78;5274117;28;20431;-66
2023/06/11 02:45:21;;;;;;;13.88;11.85;;;;;;;18.58;100.00;101279.09;5275091;28;20362;-66
2023/06/11 02:47:53;;;;;;;14.20;12.07;;;;;;;18.58;100.00;101279.09;5281024;28;20098;-66
2023/06/11 02:50:24;;;;;;;13.13;11.82;;;;;;;18.57;100.00;101282.78;5274882;28;20405;-66
2023/06/11 02:52:56;;;;;;;13.38;11.88;;;;;;;18.50;100.00;101281.72;5274709;28;20347;-66
2023/06/11 02:55:27;;;;;;;14.25;12.07;;;;;;;18.46;100.00;101284.91;5276995;28;20086;-66
2023/06/11 02:57:59;;;;;;;13.73;12.43;;;;;;;18.42;100.00;101285.22;5265434;28;20035;-66
2023/06/11 03:00:30;;;;;;;14.07;12.55;;;;;;;18.41;100.00;101288.09;5270332;28;20024;-66
2023/06/11 03:03:02;;;;;;;15.20;12.23;;;;;;;18.38;100.00;101283.84;5273773;28;20107;-66
2023/06/11 03:05:33;;;;;;;14.93;13.43;;;;;;;18.34;100.00;101289.72;5276345;28;20397;-67
2023/06/11 03:08:04;;;;;;;14.40;12.85;;;;;;;18.30;100.00;101286.50;5277438;28;20252;-66
2023/06/11 03:10:36;;;;;;;14.13;12.60;;;;;;;18.28;100.00;101285.81;5272942;28;20127;-66
2023/06/11 03:13:07;;;;;;;14.00;12.50;;;;;;;18.21;100.00;101287.44;5272279;28;20021;-66
2023/06/11 03:15:38;;;;;;;13.88;12.20;;;;;;;18.18;100.00;101282.34;5276652;28;20032;-66
2023/06/11 03:18:10;;;;;;;14.35;12.75;;;;;;;18.17;100.00;101286.88;5280404;28;20031;-66
2023/06/11 03:20:41;;;;;;;16.33;13.43;;;;;;;18.12;100.00;101281.13;5279509;28;20402;-66
2023/06/11 03:23:14;;;;;;;14.88;13.35;;;;;;;18.13;100.00;101284.66;5279034;28;20037;-66
2023/06/11 03:25:46;;;;;;;14.10;12.70;;;;;;;18.12;100.00;101294.63;5269236;28;20108;-66
2023/06/11 03:28:17;;;;;;;16.45;12.85;;;;;;;18.11;100.00;101282.13;5273710;28;20596;-66
2023/06/11 03:30:48;;;;;;;14.57;13.05;;;;;;;18.06;100.00;101294.38;5279649;28;20789;-66
2023/06/11 03:33:20;;;;;;;13.30;12.10;;;;;;;18.08;100.00;101297.78;5278375;28;20446;-66
2023/06/11 03:35:51;;;;;;;14.80;13.27;;;;;;;17.99;100.00;101295.00;5275653;28;20099;-66
2023/06/11 03:38:22;;;;;;;15.35;13.80;;;;;;;17.95;100.00;101292.75;5279006;28;20024;-66
2023/06/11 03:40:57;;;;;;;15.45;13.88;;;;;;;17.94;100.00;101294.63;5279287;28;20121;-67
2023/06/11 03:43:28;;;;;;;15.18;13.68;;;;;;;17.92;100.00;101296.63;5278919;28;20424;-67
2023/06/11 03:46:00;;;;;;;16.00;13.48;;;;;;;17.94;100.00;101302.72;5276954;28;20034;-66
2023/06/11 03:48:31;;;;;;;15.65;14.05;;;;;;;17.95;100.00;101303.56;5283113;28;20020;-66
2023/06/11 03:51:03;;;;;;;15.23;13.63;;;;;;;17.92;100.00;101296.63;5285498;28;20028;-66
2023/06/11 03:53:34;;;;;;;16.45;14.85;;;;;;;17.94;100.00;101296.47;5277306;28;20048;-66
2023/06/11 03:56:05;;;;;;;18.20;15.40;;;;;;;17.97;100.00;101305.13;5276394;28;20082;-66
2023/06/11 03:58:37;;;;;;;17.70;15.80;;;;;;;17.92;100.00;101299.34;5273434;28;20024;-66
2023/06/11 04:01:08;;;;;;;16.60;15.00;;;;;;;18.00;100.00;101298.56;5278868;28;20032;-66
2023/06/11 04:03:40;;;;;;;17.13;15.52;;;;;;;17.92;100.00;101310.13;5281263;28;20120;-66
2023/06/11 04:06:11;;;;;;;17.05;15.15;;;;;;;17.91;100.00;101307.56;5272986;28;20400;-66
2023/06/11 04:08:42;;;;;;;17.25;14.80;;;;;;;18.05;100.00;101312.44;5271427;28;20395;-67
2023/06/11 04:11:14;;;;;;;17.13;14.52;;;;;;;17.92;100.00;101310.13;5272455;28;20032;-66
2023/06/11 04:13:50;;;;;;;17.10;15.50;;;;;;;17.92;100.00;101309.28;5275455;28;20375;-67
2023/06/11 04:16:21;;;;;;;19.00;16.45;;;;;;;17.95;100.00;101309.84;5276324;28;20024;-66
2023/06/11 04:18:52;;;;;;;17.85;15.95;;;;;;;17.98;100.00;101311.38;5267245;28;20043;-67
2023/06/11 04:21:24;;;;;;;17.92;16.05;;;;;;;17.97;100.00;101309.69;5273238;28;20040;-66
2023/06/11 04:23:56;;;;;;;19.67;16.98;;;;;;;17.95;100.00;101309.84;5277322;28;20029;-66
2023/06/11 04:26:27;;;;;;;18.25;16.38;;;;;;;17.98;100.00;101319.47;5277460;28;20029;-66
2023/06/11 04:28:59;;;;;;;20.98;16.38;;;;;;;18.04;100.00;101318.84;5268786;28;20024;-66
2023/06/11 04:31:32;;;;;;;17.95;16.13;;;;;;;18.07;100.00;101310.44;5270263;28;20016;-67
2023/06/11 04:34:06;;;;;;;18.50;16.65;;;;;;;18.02;100.00;101320.84;5277935;28;20063;-66
2023/06/11 04:36:41;;;;;;;18.65;16.65;;;;;;;18.02;100.00;101313.63;5270227;28;20024;-68
2023/06/11 04:39:14;;;;;;;19.27;17.30;;;;;;;18.11;100.00;101322.63;5277899;28;20036;-67
2023/06/11 04:41:46;;;;;;;19.58;17.65;;;;;;;18.21;100.00;101320.69;5270304;28;20033;-67
2023/06/11 04:44:21;;;;;;;18.05;16.27;;;;;;;18.15;100.00;101321.31;5276916;28;20038;-67
2023/06/11 04:46:57;;;;;;;19.13;17.05;;;;;;;18.14;100.00;101311.53;5270012;28;20024;-67
2023/06/11 04:49:28;;;;;;;19.05;17.25;;;;;;;18.12;100.00;101318.94;5274622;28;20036;-68
2023/06/11 04:51:59;;;;;;;19.55;17.60;;;;;;;18.27;100.00;101312.97;5264097;28;20064;-67
2023/06/11 04:54:31;;;;;;;20.58;18.42;;;;;;;18.17;100.00;101310.34;5282479;28;20132;-67
2023/06/11 04:57:03;;;;;;;19.85;17.75;;;;;;;18.17;100.00;101315.75;5271112;28;20033;-67
2023/06/11 04:59:34;;;;;;;21.52;19.38;;;;;;;18.28;100.00;101320.09;5275742;28;20044;-68
2023/06/11 05:02:06;;;;;;;21.05;19.00;;;;;;;18.28;100.00;101320.09;5275254;28;20037;-68
2023/06/11 05:04:38;;;;;;;20.88;18.75;;;;;;;18.30;100.00;101323.47;5276245;28;20024;-67
2023/06/11 05:07:10;;;;;;;19.67;17.77;;;;;;;18.27;100.00;101313.81;5274636;28;20053;-68
2023/06/11 05:09:42;;;;;;;19.92;16.60;;;;;;;18.32;100.00;101321.47;5278613;28;20033;-67
2023/06/11 05:12:13;;;;;;;18.95;16.95;;;;;;;18.33;100.00;101324.00;5274033;28;20502;-68
2023/06/11 05:14:45;;;;;;;18.83;16.92;;;;;;;18.35;100.00;101323.81;5270477;28;20028;-68
2023/06/11 05:17:16;;;;;;;19.35;17.30;;;;;;;18.36;100.00;101326.38;5267350;28;20217;-68
2023/06/11 05:19:48;;;;;;;19.55;17.60;;;;;;;18.42;100.00;101338.41;5268548;28;20029;-68
2023/06/11 05:22:20;;;;;;;19.98;17.98;;;;;;;18.50;100.00;101330.38;5276475;28;20062;-67
2023/06/11 05:24:52;;;;;;;18.10;16.27;;;;;;;18.48;100.00;101332.38;5275729;28;20017;-67
2023/06/11 05:27:28;;;;;;;19.15;17.23;;;;;;;18.49;100.00;101331.38;5274312;28;20062;-68
2023/06/11 05:30:00;;;;;;;18.15;16.45;;;;;;;18.50;100.00;101326.81;5270611;28;20059;-67
2023/06/11 05:32:32;;;;;;;18.48;16.77;;;;;;;18.61;100.00;101330.09;5264398;28;20029;-67
2023/06/11 05:35:05;;;;;;;18.40;16.52;;;;;;;18.58;100.00;101330.44;5274805;28;20438;-67
2023/06/11 05:37:37;;;;;;;18.30;16.40;;;;;;;18.75;100.00;101338.66;5268744;28;20029;-67
2023/06/11 05:40:09;;;;;;;17.98;16.08;;;;;;;18.73;100.00;101335.25;5259590;28;20037;-67
2023/06/11 05:42:41;;;;;;;17.33;15.52;;;;;;;18.68;100.00;101334.88;5277273;28;20115;-68
2023/06/11 05:45:12;;;;;;;16.98;15.25;;;;;;;18.85;100.00;101336.75;5278490;28;20371;-67
2023/06/11 05:47:44;;;;;;;19.23;14.88;;;;;;;18.77;100.00;101333.94;5269385;28;20487;-67
2023/06/11 05:50:15;;;;;;;16.63;15.02;;;;;;;18.79;100.00;101334.63;5265152;28;20543;-67
2023/06/11 05:52:47;;;;;;;16.60;14.80;;;;;;;18.87;100.00;101332.03;5275213;28;20111;-68
2023/06/11 05:55:19;;;;;;;15.20;13.60;;;;;;;18.89;100.00;101324.59;5270457;28;20027;-68
2023/06/11 05:57:50;;;;;;;16.45;14.85;;;;;;;18.93;100.00;101328.66;5265467;28;20377;-67
2023/06/11 06:00:22;;;;;;;17.33;15.05;;;;;;;19.03;100.00;101325.00;5261652;28;20119;-67
2023/06/11 06:02:54;;;;;;;16.38;14.32;;;;;;;19.08;100.00;101330.75;5268978;28;20037;-66
2023/06/11 06:05:25;;;;;;;15.30;13.73;;;;;;;19.22;100.00;101330.16;5265747;28;20429;-65
2023/06/11 06:07:57;;;;;;;13.02;11.80;;;;;;;19.21;100.00;101328.44;5273205;28;20255;-65
2023/06/11 06:10:28;;;;;;;16.25;12.57;;;;;;;19.29;100.00;101341.16;5269390;28;20036;-65
2023/06/11 06:13:00;;;;;;;13.20;11.90;;;;;;;19.38;100.00;101334.78;5274073;28;20047;-65
2023/06/11 06:15:31;;;;;;;15.77;11.60;;;;;;;19.48;100.00;101335.50;5275069;28;20081;-66
2023/06/11 06:18:05;;;;;;;13.60;11.00;;;;;;;19.56;100.00;101337.41;5274938;28;20099;-65
2023/06/11 06:20:36;;;;;;;13.07;11.15;;;;;;;19.55;100.00;101341.13;5262604;28;20053;-65
2023/06/11 06:23:08;;;;;;;13.18;11.20;;;;;;;19.66;100.00;101338.09;5270345;28;20074;-66
2023/06/11 06:25:41;;;;;;;12.48;10.82;;;;;;;19.87;100.00;101343.09;5269636;28;20086;-65
2023/06/11 06:28:12;;;;;;;11.25;9.88;;;;;;;19.92;100.00;101346.16;5276738;28;20024;-65
2023/06/11 06:30:43;;;;;;;12.48;10.48;;;;;;;19.96;100.00;101342.09;5270607;28;20052;-65
2023/06/11 06:33:15;;;;;;;11.25;9.52;;;;;;;20.05;100.00;101336.69;5271816;28;20024;-66
2023/06/11 06:35:46;;;;;;;11.88;9.95;;;;;;;20.18;100.00;101346.00;5274943;28;20504;-66
2023/06/11 06:38:18;;;;;;;13.35;9.40;;;;;;;20.25;100.00;101339.91;5267912;28;20020;-66
2023/06/11 06:40:49;;;;;;;9.32;8.43;;;;;;;20.48;100.00;101340.94;5273020;28;20024;-65
2023/06/11 06:43:20;;;;;;;10.48;9.48;;;;;;;20.52;100.00;101347.72;5267048;28;20332;-65
2023/06/11 06:45:52;;;;;;;10.70;8.98;;;;;;;20.75;100.00;101347.88;5270454;28;20039;-65
2023/06/11 06:48:23;;;;;;;9.88;8.88;;;;;;;20.72;100.00;101347.38;5269241;28;20577;-66
2023/06/11 06:50:55;;;;;;;12.77;9.40;;;;;;;20.83;100.00;101346.19;5277932;28;20048;-66
2023/06/11 06:53:27;;;;;;;10.93;8.43;;;;;;;20.98;100.00;101355.31;5277768;28;20035;-66
2023/06/11 06:56:00;;;;;;;10.07;8.85;;;;;;;21.19;100.00;101346.59;5266426;28;20025;-66
2023/06/11 06:58:34;;;;;;;9.27;8.38;;;;;;;21.27;100.00;101343.00;5263163;28;20103;-66
2023/06/11 07:01:06;;;;;;;9.45;8.45;;;;;;;21.35;100.00;101351.94;5289666;28;20066;-66
2023/06/11 07:03:37;;;;;;;10.70;8.65;;;;;;;21.66;100.00;101334.00;5267410;28;20107;-65
2023/06/11 07:06:08;;;;;;;10.90;8.68;;;;;;;21.63;100.00;101347.94;5270754;28;20309;-66
2023/06/11 07:08:40;;;;;;;10.50;8.35;;;;;;;21.82;100.00;101341.22;5274218;28;20483;-66
2023/06/11 07:11:15;;;;;;;10.07;8.48;;;;;;;21.90;100.00;101338.47;5274571;28;20382;-66
2023/06/11 07:13:46;;;;;;;10.85;8.63;;;;;;;21.97;100.00;101339.41;5275538;28;20143;-66
2023/06/11 07:16:17;;;;;;;10.80;8.32;;;;;;;22.14;100.00;101345.56;5272751;28;20116;-65
2023/06/11 07:18:49;;;;;;;9.32;8.32;;;;;;;22.16;100.00;101343.53;5275546;28;20024;-65
2023/06/11 07:21:20;;;;;;;9.52;8.10;;;;;;;22.31;100.00;101341.72;5277425;28;20024;-66
2023/06/11 07:23:52;;;;;;;9.23;8.13;;;;;;;22.54;100.00;101337.31;5266516;28;20032;-65
2023/06/11 07:26:23;;;;;;;10.65;8.40;;;;;;;22.69;100.00;101343.63;5268616;28;20095;-66
2023/06/11 07:28:54;;;;;;;11.90;8.43;;;;;;;22.81;100.00;101339.41;5269462;28;20052;-66
2023/06/11 07:31:26;;;;;;;10.27;8.30;;;;;;;22.87;100.00;101343.25;5271361;28;20088;-66
2023/06/11 07:33:57;;;;;;;10.02;7.75;;;;;;;22.90;100.00;101342.88;5269956;28;20020;-65
2023/06/11 07:36:29;;;;;;;10.52;8.63;;;;;;;23.01;100.00;101349.72;5280296;28;20040;-66
2023/06/11 07:39:01;;;;;;;10.40;8.18;;;;;;;23.22;100.00;101346.28;5272505;28;20025;-65
2023/06/11 07:41:32;;;;;;;8.88;7.93;;;;;;;23.43;100.00;101345.50;5277092;28;20463;-65
2023/06/11 07:44:04;;;;;;;10.05;8.48;;;;;;;23.50;100.00;101357.34;5273370;28;20111;-65
2023/06/11 07:46:35;;;;;;;10.60;7.97;;;;;;;23.61;100.00;101347.84;5271485;28;20166;-66
2023/06/11 07:49:07;;;;;;;11.55;7.90;;;;;;;23.64;100.00;101353.75;5275539;28;20037;-66
2023/06/11 07:51:38;;;;;;;8.45;7.50;;;;;;;23.73;100.00;101356.38;5268731;28;20587;-66
2023/06/11 07:54:09;;;;;;;9.63;7.80;;;;;;;23.87;100.00;101350.91;5273330;28;20475;-66
2023/06/11 07:56:41;;;;;;;8.68;7.40;;;;;;;23.81;100.00;101348.09;5266306;28;20060;-66
2023/06/11 07:59:13;;;;;;;8.27;7.38;;;;;;;23.96;100.00;101351.63;5256339;28;20029;-65
2023/06/11 08:01:45;;;;;;;8.98;7.40;;;;;;;24.13;100.00;101348.66;5269747;28;20047;-66
2023/06/11 08:04:16;;;;;;;8.48;7.55;;;;;;;24.16;100.00;101345.50;5270180;28;20483;-66
2023/06/11 08:06:48;;;;;;;8.45;7.40;;;;;;;24.33;100.00;101346.09;5276013;28;20057;-66
2023/06/11 08:09:20;;;;;;;8.27;7.45;;;;;;;24.59;100.00;101356.44;5273222;28;20029;-66
2023/06/11 08:11:51;;;;;;;9.00;7.57;;;;;;;24.44;100.00;101346.41;5277112;28;20432;-66
2023/06/11 08:14:23;;;;;;;8.43;6.82;;;;;;;24.70;100.00;101358.63;5273863;28;20040;-65
2023/06/11 08:16:54;;;;;;;9.63;7.60;;;;;;;24.63;100.00;101353.09;5271063;28;20036;-66
2023/06/11 08:19:26;;;;;;;9.77;7.63;;;;;;;24.76;100.00;101349.63;5277134;28;20032;-66
2023/06/11 08:22:00;;;;;;;8.70;7.40;;;;;;;24.89;100.00;101350.75;5276193;28;20024;-67
2023/06/11 08:24:31;;;;;;;8.85;7.95;;;;;;;24.92;100.00;101347.63;5274473;28;20036;-66
2023/06/11 08:27:03;;;;;;;8.23;7.43;;;;;;;24.92;100.00;101350.38;5275463;28;20028;-66
2023/06/11 08:29:35;;;;;;;8.27;7.47;;;;;;;25.08;100.00;101341.84;5279155;28;20037;-66
2023/06/11 08:32:06;;;;;;;8.75;7.70;;;;;;;25.24;100.00;101343.44;5271769;28;20167;-65
2023/06/11 08:34:38;;;;;;;12.93;7.35;;;;;;;25.41;100.00;101341.22;5273569;28;20077;-66
2023/06/11 08:37:09;;;;;;;8.57;7.25;;;;;;;25.50;100.00;101339.13;5279496;28;20177;-66
2023/06/11 08:39:41;;;;;;;8.30;7.25;;;;;;;25.67;100.00;101342.34;5271861;28;20028;-66
2023/06/11 08:42:12;;;;;;;9.38;7.25;;;;;;;25.74;100.00;101341.34;5274692;28;20486;-66
2023/06/11 08:44:45;;;;;;;10.77;7.80;;;;;;;25.80;100.00;101337.75;5270768;28;20028;-66
2023/06/11 08:47:17;;;;;;;8.70;7.10;;;;;;;25.87;100.00;101326.84;5277597;28;20089;-66
2023/06/11 08:49:51;;;;;;;8.20;7.40;;;;;;;25.98;100.00;101334.50;5276199;28;20055;-66
2023/06/11 08:52:23;;;;;;;;;;;;;;;26.14;100.00;101332.41;5270158;28;20602;-65
2023/06/11 08:54:55;;;;;;;7.75;6.95;;;;;;;26.12;100.00;101327.13;5279374;28;19915;-66
2023/06/11 08:57:26;;;;;;;7.70;6.82;;;;;;;26.28;100.00;101316.84;5274894;28;20034;-66
2023/06/11 08:59:58;;;;;;;9.20;6.90;;;;;;;26.30;100.00;101322.94;5273933;28;20028;-66
2023/06/11 09:02:29;;;;;;;8.63;6.80;;;;;;;26.36;100.00;101325.66;5274022;28;20024;-66
2023/06/11 09:05:02;;;;;;;8.63;6.45;;;;;;;26.64;100.00;101316.44;5274220;28;20024;-65
2023/06/11 09:07:34;;;;;;;8.27;7.20;;;;;;;26.56;100.00;101324.81;5274408;28;20048;-65
2023/06/11 09:10:07;;;;;;;7.28;6.45;;;;;;;26.86;100.00;101317.00;5276834;28;20024;-65
2023/06/11 09:12:39;;;;;;;9.10;7.35;;;;;;;26.87;100.00;101313.22;5275566;28;20158;-66
2023/06/11 09:15:12;;;;;;;9.32;6.93;;;;;;;26.78;100.00;101318.06;5277223;28;20643;-65
2023/06/11 09:17:46;;;;;;;9.80;7.03;;;;;;;26.85;100.00;101318.09;5261852;28;20020;-65
2023/06/11 09:20:18;;;;;;;8.50;6.80;;;;;;;27.03;100.00;101306.44;5273678;28;20063;-65
2023/06/11 09:22:51;;;;;;;10.20;7.40;;;;;;;27.05;100.00;101318.00;5271357;28;20029;-65
2023/06/11 09:25:22;;;;;;;9.02;6.85;;;;;;;27.20;100.00;101320.50;5267939;28;20475;-65
2023/06/11 09:27:53;;;;;;;8.93;6.60;;;;;;;27.19;100.00;101314.19;5276958;28;20032;-66
2023/06/11 09:30:26;;;;;;;8.65;6.45;;;;;;;27.15;100.00;101312.09;5274165;28;20397;-66
2023/06/11 09:32:57;;;;;;;7.90;6.38;;;;;;;27.24;100.00;101312.69;5279537;28;20041;-66
2023/06/11 09:35:28;;;;;;;8.43;6.88;;;;;;;27.21;100.00;101305.72;5263985;28;20040;-66
2023/06/11 09:38:00;;;;;;;8.15;6.28;;;;;;;27.40;100.00;101309.47;5274566;28;20466;-66
2023/06/11 09:40:34;;;;;;;8.43;7.05;;;;;;;27.28;100.00;101313.97;5269590;28;20430;-66
2023/06/11 09:43:06;;;;;;;8.10;6.30;;;;;;;27.48;100.00;101322.97;5271513;28;20115;-66
2023/06/11 09:45:37;;;;;;;7.53;6.50;;;;;;;27.63;100.00;101313.59;5275056;28;20030;-65
2023/06/11 09:48:12;;;;;;;8.63;6.47;;;;;;;27.79;100.00;101313.09;5271549;28;20028;-65
2023/06/11 09:50:44;;;;;;;6.43;5.82;;;;;;;27.76;100.00;101317.09;5276734;28;20029;-65
2023/06/11 09:53:19;;;;;;;6.97;6.18;;;;;;;27.70;100.00;101320.72;5268878;28;20063;-65
2023/06/11 09:55:51;;;;;;;7.25;5.90;;;;;;;27.88;100.00;101320.03;5268614;28;20115;-65
2023/06/11 09:58:23;;;;;;;6.82;5.80;;;;;;;27.94;100.00;101327.38;5262708;28;20035;-66
2023/06/11 10:01:00;;;;;;;7.60;6.22;;;;;;;27.96;100.00;101316.19;5277396;28;20398;-66
2023/06/11 10:03:31;;;;;;;7.25;5.55;;;;;;;27.95;100.00;101323.53;5281442;28;20027;-65
2023/06/11 10:06:07;;;;;;;6.88;6.07;;;;;;;28.21;100.00;101321.69;5277507;28;20024;-66
2023/06/11 10:08:39;;;;;;;7.47;5.00;;;;;;;28.13;100.00;101324.69;5290633;28;20482;-66
2023/06/11 10:11:10;;;;;;;7.10;5.65;;;;;;;28.27;100.00;101315.31;5280338;28;20032;-65
2023/06/11 10:13:55;;;;;;;9.18;5.13;;;;;;;28.37;100.00;101325.78;5281015;28;20028;-65
2023/06/11 10:16:30;;;;;;;8.02;5.60;;;;;;;28.44;100.00;101315.59;5279503;28;20032;-65
2023/06/11 10:19:10;;;;;;;6.80;5.93;;;;;;;28.56;100.00;101323.94;5278177;28;20028;-65
2023/06/11 10:21:43;;;;;;;8.55;5.47;;;;;;;28.44;100.00;101310.09;5262254;28;20033;-65
2023/06/11 10:24:28;;;;;;;6.60;5.10;;;;;;;28.45;100.00;101313.66;5276669;28;20039;-65
2023/06/11 10:27:10;;;;;;;7.40;6.03;;;;;;;28.57;100.00;101316.53;5269140;28;20125;-65
2023/06/11 10:29:49;;;;;;;6.50;5.53;;;;;;;28.67;100.00;101314.97;5267252;28;20166;-65
2023/06/11 10:32:22;;;;;;;7.97;5.80;;;;;;;28.55;100.00;101314.00;5269492;28;20105;-65
2023/06/11 10:34:56;;;;;;;7.50;5.75;;;;;;;28.72;100.00;101317.84;5271221;28;20021;-65
2023/06/11 10:37:31;;;;;;;7.45;5.47;;;;;;;28.89;100.00;101304.38;5269755;28;20043;-65
2023/06/11 10:40:08;;;;;;;7.03;5.75;;;;;;;29.07;100.00;101311.81;5266082;28;20029;-64
2023/06/11 10:42:50;;;;;;;8.10;5.72;;;;;;;28.87;100.00;101309.25;5272950;28;20032;-64
2023/06/11 10:45:32;;;;;;;6.60;5.57;;;;;;;28.98;100.00;101306.84;5282581;28;20031;-64
2023/06/11 10:48:04;;;;;;;6.28;5.40;;;;;;;28.99;100.00;101301.09;5270606;28;20035;-65
2023/06/11 10:50:36;;;;;;;6.35;5.53;;;;;;;28.91;100.00;101309.66;5272893;28;20012;-64
2023/06/11 10:53:15;;;;;;;6.75;5.28;;;;;;;29.03;100.00;101306.97;5269323;28;20395;-65
2023/06/11 10:55:47;;;;;;;8.85;5.63;;;;;;;29.18;100.00;101309.38;5279635;28;20060;-64
2023/06/11 10:58:22;;;;;;;7.22;5.50;;;;;;;29.26;100.00;101309.06;5267098;28;20043;-65
2023/06/11 11:00:54;;;;;;;6.22;5.60;;;;;;;29.28;100.00;101312.41;5280304;28;20089;-65
2023/06/11 11:03:29;;;;;;;6.35;5.07;;;;;;;29.36;100.00;101306.63;5269911;28;20048;-65
2023/06/11 11:06:01;;;;;;;6.55;4.90;;;;;;;29.40;99.09;101307.81;5275049;28;20372;-64
2023/06/11 11:08:32;;;;;;;8.35;5.78;;;;;;;29.28;100.00;101298.66;5270472;28;20103;-65
2023/06/11 11:11:04;;;;;;;7.85;4.85;;;;;;;29.38;95.03;101304.47;5265936;28;20360;-64
2023/06/11 11:13:36;;;;;;;5.97;4.75;;;;;;;29.50;93.88;101305.34;5268239;28;20016;-64
2023/06/11 11:16:08;;;;;;;7.32;5.47;;;;;;;29.25;96.34;101296.41;5268887;28;20031;-65
2023/06/11 11:18:40;;;;;;;7.13;5.35;;;;;;;29.44;96.71;101309.03;5267995;28;20021;-65
2023/06/11 11:21:11;;;;;;;7.28;5.40;;;;;;;29.27;98.85;101310.75;5276414;28;20020;-64
2023/06/11 11:23:47;;;;;;;7.35;4.75;;;;;;;29.40;93.54;101296.84;5267352;28;20046;-64
2023/06/11 11:26:18;;;;;;;6.20;4.63;;;;;;;29.48;94.93;101298.41;5280233;28;20060;-65
2023/06/11 11:28:51;;;;;;;6.70;4.57;;;;;;;29.57;90.39;101296.16;5268149;28;20058;-65
2023/06/11 11:31:23;;;;;;;5.97;4.72;;;;;;;29.28;100.00;101299.53;5273743;28;20544;-66
2023/06/11 11:33:54;;;;;;;5.18;4.60;;;;;;;29.50;85.95;101296.28;5283585;28;20020;-65